sensor_id;sensor_type;location;lat;lon;timestamp;pressure;altitude;pressure_sealevel;temperature;humidity
51530;BME280;37613;51.788;21.582;2022-07-15T00:01:06;99639.23;;;17.37;61.28
51530;BME280;37613;51.788;21.582;2022-07-15T00:05:08;99654.63;;;17.31;61.21
51530;BME280;37613;51.788;21.582;2022-07-15T00:09:11;99663.55;;;17.20;61.73
51530;BME280;37613;51.788;21.582;2022-07-15T00:13:13;99662.38;;;17.06;62.12
51530;BME280;37613;51.788;21.582;2022-07-15T00:17:15;99671.45;;;16.95;62.59
51530;BME280;37613;51.788;21.582;2022-07-15T00:21:16;99658.84;;;16.91;62.30
51530;BME280;37613;51.788;21.582;2022-07-15T00:25:18;99665.52;;;16.86;62.33
51530;BME280;37613;51.788;21.582;2022-07-15T00:29:20;99655.19;;;16.86;62.58
51530;BME280;37613;51.788;21.582;2022-07-15T00:33:22;99667.14;;;16.82;62.80
51530;BME280;37613;51.788;21.582;2022-07-15T00:37:24;99671.42;;;16.75;62.56
51530;BME280;37613;51.788;21.582;2022-07-15T00:41:38;99670.72;;;16.69;62.80
51530;BME280;37613;51.788;21.582;2022-07-15T00:45:39;99665.38;;;16.64;62.72
51530;BME280;37613;51.788;21.582;2022-07-15T00:49:41;99660.42;;;16.62;62.62
51530;BME280;37613;51.788;21.582;2022-07-15T00:53:44;99660.00;;;16.60;62.51
51530;BME280;37613;51.788;21.582;2022-07-15T00:57:49;99654.60;;;16.57;62.52
51530;BME280;37613;51.788;21.582;2022-07-15T01:01:52;99664.56;;;16.55;62.48
51530;BME280;37613;51.788;21.582;2022-07-15T01:05:55;99672.48;;;16.50;62.61
51530;BME280;37613;51.788;21.582;2022-07-15T01:09:58;99678.59;;;16.43;62.55
51530;BME280;37613;51.788;21.582;2022-07-15T01:14:01;99677.67;;;16.37;62.81
51530;BME280;37613;51.788;21.582;2022-07-15T01:18:03;99683.84;;;16.31;62.75
51530;BME280;37613;51.788;21.582;2022-07-15T01:22:06;99692.64;;;16.25;63.09
51530;BME280;37613;51.788;21.582;2022-07-15T01:26:24;99697.86;;;16.19;63.03
51530;BME280;37613;51.788;21.582;2022-07-15T01:30:26;99677.30;;;16.08;63.73
51530;BME280;37613;51.788;21.582;2022-07-15T01:34:27;99681.55;;;15.99;63.15
51530;BME280;37613;51.788;21.582;2022-07-15T01:38:30;99676.16;;;15.88;63.63
51530;BME280;37613;51.788;21.582;2022-07-15T01:42:31;99667.79;;;15.69;64.08
51530;BME280;37613;51.788;21.582;2022-07-15T01:46:34;99663.27;;;15.54;64.23
51530;BME280;37613;51.788;21.582;2022-07-15T01:50:35;99668.36;;;15.40;64.98
51530;BME280;37613;51.788;21.582;2022-07-15T01:54:39;99665.00;;;15.29;66.00
51530;BME280;37613;51.788;21.582;2022-07-15T01:58:41;99672.95;;;15.21;65.48
51530;BME280;37613;51.788;21.582;2022-07-15T02:02:43;99689.34;;;15.15;65.57
51530;BME280;37613;51.788;21.582;2022-07-15T02:06:45;99699.61;;;15.09;65.48
51530;BME280;37613;51.788;21.582;2022-07-15T02:10:47;99718.10;;;15.08;66.07
51530;BME280;37613;51.788;21.582;2022-07-15T02:14:49;99727.84;;;15.04;66.21
51530;BME280;37613;51.788;21.582;2022-07-15T02:18:52;99723.95;;;15.00;66.02
51530;BME280;37613;51.788;21.582;2022-07-15T02:22:54;99707.94;;;14.98;66.45
51530;BME280;37613;51.788;21.582;2022-07-15T02:26:59;99704.29;;;14.98;66.56
51530;BME280;37613;51.788;21.582;2022-07-15T02:31:01;99704.41;;;14.93;66.47
51530;BME280;37613;51.788;21.582;2022-07-15T02:35:03;99701.13;;;14.88;67.11
51530;BME280;37613;51.788;21.582;2022-07-15T02:39:05;99704.58;;;14.83;67.04
51530;BME280;37613;51.788;21.582;2022-07-15T02:43:10;99715.77;;;14.78;67.30
51530;BME280;37613;51.788;21.582;2022-07-15T02:47:12;99721.23;;;14.73;67.54
51530;BME280;37613;51.788;21.582;2022-07-15T02:51:14;99724.55;;;14.67;67.96
51530;BME280;37613;51.788;21.582;2022-07-15T02:55:17;99731.08;;;14.61;67.99
51530;BME280;37613;51.788;21.582;2022-07-15T02:59:19;99730.72;;;14.52;68.29
51530;BME280;37613;51.788;21.582;2022-07-15T03:03:20;99729.33;;;14.46;68.37
51530;BME280;37613;51.788;21.582;2022-07-15T03:07:23;99726.27;;;14.44;68.42
51530;BME280;37613;51.788;21.582;2022-07-15T03:11:25;99725.45;;;14.42;68.77
51530;BME280;37613;51.788;21.582;2022-07-15T03:15:27;99725.09;;;14.40;69.06
51530;BME280;37613;51.788;21.582;2022-07-15T03:19:29;99731.17;;;14.37;69.25
51530;BME280;37613;51.788;21.582;2022-07-15T03:23:31;99744.43;;;14.38;68.95
51530;BME280;37613;51.788;21.582;2022-07-15T03:27:33;99758.86;;;14.37;69.19
51530;BME280;37613;51.788;21.582;2022-07-15T03:31:35;99761.17;;;14.37;69.16
51530;BME280;37613;51.788;21.582;2022-07-15T03:35:37;99767.55;;;14.47;69.45
51530;BME280;37613;51.788;21.582;2022-07-15T03:39:40;99772.86;;;14.72;69.70
51530;BME280;37613;51.788;21.582;2022-07-15T03:43:42;99779.84;;;14.90;69.60
51530;BME280;37613;51.788;21.582;2022-07-15T03:47:44;99786.10;;;15.13;69.47
51530;BME280;37613;51.788;21.582;2022-07-15T03:51:45;99784.47;;;15.27;69.60
51530;BME280;37613;51.788;21.582;2022-07-15T03:55:47;99792.23;;;15.38;69.60
51530;BME280;37613;51.788;21.582;2022-07-15T03:59:49;99787.37;;;15.91;70.20
51530;BME280;37613;51.788;21.582;2022-07-15T04:03:52;99795.32;;;17.54;69.82
51530;BME280;37613;51.788;21.582;2022-07-15T04:07:54;99801.87;;;19.32;69.30
51530;BME280;37613;51.788;21.582;2022-07-15T04:11:56;99801.46;;;20.85;66.23
51530;BME280;37613;51.788;21.582;2022-07-15T04:15:58;99796.66;;;22.04;64.95
51530;BME280;37613;51.788;21.582;2022-07-15T04:20:00;99800.38;;;22.74;59.33
51530;BME280;37613;51.788;21.582;2022-07-15T04:24:02;99807.73;;;23.13;58.78
51530;BME280;37613;51.788;21.582;2022-07-15T04:28:04;99809.23;;;23.98;59.21
51530;BME280;37613;51.788;21.582;2022-07-15T04:32:06;99815.73;;;25.12;57.04
51530;BME280;37613;51.788;21.582;2022-07-15T04:36:09;99816.00;;;25.77;53.76
51530;BME280;37613;51.788;21.582;2022-07-15T04:40:11;99817.50;;;26.58;53.57
51530;BME280;37613;51.788;21.582;2022-07-15T04:44:13;99824.00;;;27.22;50.61
51530;BME280;37613;51.788;21.582;2022-07-15T04:48:15;99829.65;;;28.00;50.17
51530;BME280;37613;51.788;21.582;2022-07-15T04:52:36;99829.89;;;28.82;49.22
51530;BME280;37613;51.788;21.582;2022-07-15T04:56:38;99835.23;;;29.59;47.58
51530;BME280;37613;51.788;21.582;2022-07-15T05:00:44;99833.39;;;30.27;44.75
51530;BME280;37613;51.788;21.582;2022-07-15T05:04:46;99827.54;;;29.80;41.18
51530;BME280;37613;51.788;21.582;2022-07-15T05:08:48;99822.19;;;28.36;42.94
51530;BME280;37613;51.788;21.582;2022-07-15T05:12:50;99829.61;;;27.43;42.88
51530;BME280;37613;51.788;21.582;2022-07-15T05:16:52;99830.55;;;26.49;42.89
51530;BME280;37613;51.788;21.582;2022-07-15T05:20:54;99836.86;;;25.54;43.21
51530;BME280;37613;51.788;21.582;2022-07-15T05:24:56;99843.17;;;25.21;42.75
51530;BME280;37613;51.788;21.582;2022-07-15T05:28:59;99848.41;;;24.59;42.61
51530;BME280;37613;51.788;21.582;2022-07-15T05:33:01;99855.12;;;24.30;43.08
51530;BME280;37613;51.788;21.582;2022-07-15T05:37:03;99866.79;;;24.03;43.09
51530;BME280;37613;51.788;21.582;2022-07-15T05:41:04;99869.84;;;23.64;42.50
51530;BME280;37613;51.788;21.582;2022-07-15T05:45:08;99875.05;;;23.44;43.00
51530;BME280;37613;51.788;21.582;2022-07-15T05:49:10;99877.79;;;23.41;43.27
51530;BME280;37613;51.788;21.582;2022-07-15T05:53:21;99881.69;;;23.59;43.22
51530;BME280;37613;51.788;21.582;2022-07-15T05:57:24;99883.52;;;23.54;42.59
51530;BME280;37613;51.788;21.582;2022-07-15T06:01:25;99887.91;;;23.60;42.72
51530;BME280;37613;51.788;21.582;2022-07-15T06:05:27;99892.59;;;23.50;42.76
51530;BME280;37613;51.788;21.582;2022-07-15T06:09:29;99892.28;;;23.54;42.77
51530;BME280;37613;51.788;21.582;2022-07-15T06:13:34;99894.63;;;23.58;42.48
51530;BME280;37613;51.788;21.582;2022-07-15T06:17:37;99900.04;;;23.51;42.06
51530;BME280;37613;51.788;21.582;2022-07-15T06:21:39;99908.77;;;23.51;42.37
51530;BME280;37613;51.788;21.582;2022-07-15T06:25:42;99912.95;;;23.43;41.94
51530;BME280;37613;51.788;21.582;2022-07-15T06:29:48;99918.54;;;23.31;41.86
51530;BME280;37613;51.788;21.582;2022-07-15T06:33:50;99917.24;;;22.98;41.57
51530;BME280;37613;51.788;21.582;2022-07-15T06:37:52;99922.11;;;22.94;41.83
51530;BME280;37613;51.788;21.582;2022-07-15T06:41:56;99922.42;;;23.24;41.96
51530;BME280;37613;51.788;21.582;2022-07-15T06:45:58;99924.29;;;23.15;41.87
51530;BME280;37613;51.788;21.582;2022-07-15T06:50:00;99927.04;;;23.18;41.84
51530;BME280;37613;51.788;21.582;2022-07-15T06:54:02;99932.27;;;23.24;41.64
51530;BME280;37613;51.788;21.582;2022-07-15T06:58:04;99920.34;;;23.18;41.59
51530;BME280;37613;51.788;21.582;2022-07-15T07:02:06;99924.88;;;23.33;41.41
51530;BME280;37613;51.788;21.582;2022-07-15T07:06:08;99930.77;;;23.40;41.50
51530;BME280;37613;51.788;21.582;2022-07-15T07:10:11;99938.98;;;23.36;41.12
51530;BME280;37613;51.788;21.582;2022-07-15T07:14:13;99934.67;;;23.43;40.74
51530;BME280;37613;51.788;21.582;2022-07-15T07:18:14;99947.99;;;23.32;40.26
51530;BME280;37613;51.788;21.582;2022-07-15T07:22:16;99952.98;;;23.30;39.80
51530;BME280;37613;51.788;21.582;2022-07-15T07:26:19;99953.63;;;23.15;38.81
51530;BME280;37613;51.788;21.582;2022-07-15T07:30:20;99955.66;;;23.10;39.48
51530;BME280;37613;51.788;21.582;2022-07-15T07:34:22;99960.41;;;23.06;39.90
51530;BME280;37613;51.788;21.582;2022-07-15T07:38:24;99958.20;;;23.05;39.51
51530;BME280;37613;51.788;21.582;2022-07-15T07:42:27;99957.81;;;23.11;39.88
51530;BME280;37613;51.788;21.582;2022-07-15T07:46:28;99959.86;;;23.29;40.29
51530;BME280;37613;51.788;21.582;2022-07-15T07:50:30;99959.40;;;23.23;40.14
51530;BME280;37613;51.788;21.582;2022-07-15T07:54:33;99965.33;;;23.27;40.33
51530;BME280;37613;51.788;21.582;2022-07-15T07:58:35;99963.48;;;23.48;40.20
51530;BME280;37613;51.788;21.582;2022-07-15T08:02:37;99964.94;;;23.61;40.15
51530;BME280;37613;51.788;21.582;2022-07-15T08:06:42;99966.29;;;23.69;40.21
51530;BME280;37613;51.788;21.582;2022-07-15T08:10:47;99966.67;;;23.32;40.11
51530;BME280;37613;51.788;21.582;2022-07-15T08:14:49;99971.36;;;23.33;40.89
51530;BME280;37613;51.788;21.582;2022-07-15T08:18:52;99966.71;;;23.44;40.63
51530;BME280;37613;51.788;21.582;2022-07-15T08:22:54;99976.58;;;23.52;40.94
51530;BME280;37613;51.788;21.582;2022-07-15T08:26:59;99983.64;;;23.57;41.11
51530;BME280;37613;51.788;21.582;2022-07-15T08:31:03;99986.16;;;23.32;41.08
51530;BME280;37613;51.788;21.582;2022-07-15T08:35:05;99987.68;;;23.05;41.42
51530;BME280;37613;51.788;21.582;2022-07-15T08:39:07;100002.18;;;22.66;41.74
51530;BME280;37613;51.788;21.582;2022-07-15T08:43:10;100005.08;;;22.10;42.23
51530;BME280;37613;51.788;21.582;2022-07-15T08:47:14;100002.34;;;22.06;42.72
51530;BME280;37613;51.788;21.582;2022-07-15T08:51:22;99997.88;;;22.35;43.15
51530;BME280;37613;51.788;21.582;2022-07-15T08:55:25;99991.52;;;22.63;43.01
51530;BME280;37613;51.788;21.582;2022-07-15T08:59:27;100003.40;;;22.69;42.58
51530;BME280;37613;51.788;21.582;2022-07-15T09:03:29;100002.42;;;22.43;42.34
51530;BME280;37613;51.788;21.582;2022-07-15T09:12:40;100004.66;;;22.36;43.01
51530;BME280;37613;51.788;21.582;2022-07-15T09:16:44;100003.73;;;22.70;42.64
51530;BME280;37613;51.788;21.582;2022-07-15T09:20:46;100011.25;;;22.88;41.97
51530;BME280;37613;51.788;21.582;2022-07-15T09:25:16;100017.05;;;22.36;41.91
51530;BME280;37613;51.788;21.582;2022-07-15T09:29:35;100030.49;;;21.72;42.83
51530;BME280;37613;51.788;21.582;2022-07-15T09:34:02;100026.89;;;21.65;44.17
51530;BME280;37613;51.788;21.582;2022-07-15T09:38:07;100021.08;;;21.95;43.64
51530;BME280;37613;51.788;21.582;2022-07-15T09:42:09;100019.70;;;22.30;43.13
51530;BME280;37613;51.788;21.582;2022-07-15T09:46:11;100021.29;;;22.50;42.83
51530;BME280;37613;51.788;21.582;2022-07-15T09:50:13;100030.27;;;22.46;42.32
51530;BME280;37613;51.788;21.582;2022-07-15T09:54:17;100028.61;;;22.30;42.36
51530;BME280;37613;51.788;21.582;2022-07-15T09:58:19;100034.26;;;22.58;42.31
51530;BME280;37613;51.788;21.582;2022-07-15T10:02:22;100039.55;;;22.85;41.24
51530;BME280;37613;51.788;21.582;2022-07-15T10:06:26;100036.67;;;22.90;40.51
51530;BME280;37613;51.788;21.582;2022-07-15T10:10:29;100037.63;;;22.38;38.97
51530;BME280;37613;51.788;21.582;2022-07-15T10:14:38;100041.36;;;22.37;39.77
51530;BME280;37613;51.788;21.582;2022-07-15T10:27:38;100043.93;;;22.20;40.18
51530;BME280;37613;51.788;21.582;2022-07-15T10:31:55;100043.14;;;22.24;38.76
51530;BME280;37613;51.788;21.582;2022-07-15T10:36:05;100046.68;;;22.49;39.21
51530;BME280;37613;51.788;21.582;2022-07-15T10:40:07;100039.27;;;22.79;38.77
51530;BME280;37613;51.788;21.582;2022-07-15T10:44:10;100040.44;;;22.86;37.80
51530;BME280;37613;51.788;21.582;2022-07-15T10:48:26;100036.68;;;23.01;36.54
51530;BME280;37613;51.788;21.582;2022-07-15T10:52:30;100044.39;;;23.03;36.83
51530;BME280;37613;51.788;21.582;2022-07-15T10:56:36;100042.53;;;23.07;36.81
51530;BME280;37613;51.788;21.582;2022-07-15T11:00:38;100043.56;;;22.73;36.68
51530;BME280;37613;51.788;21.582;2022-07-15T11:04:43;100051.34;;;22.44;37.77
51530;BME280;37613;51.788;21.582;2022-07-15T11:08:47;100049.88;;;22.28;37.40
51530;BME280;37613;51.788;21.582;2022-07-15T11:16:56;100044.38;;;22.11;37.87
51530;BME280;37613;51.788;21.582;2022-07-15T11:20:58;100043.94;;;22.43;38.12
51530;BME280;37613;51.788;21.582;2022-07-15T11:25:00;100050.36;;;22.23;36.63
51530;BME280;37613;51.788;21.582;2022-07-15T11:29:03;100055.41;;;21.88;37.46
51530;BME280;37613;51.788;21.582;2022-07-15T11:33:16;100054.95;;;21.70;38.31
51530;BME280;37613;51.788;21.582;2022-07-15T11:37:31;100057.89;;;21.71;39.30
51530;BME280;37613;51.788;21.582;2022-07-15T11:41:34;100055.90;;;21.71;39.13
51530;BME280;37613;51.788;21.582;2022-07-15T11:45:54;100060.31;;;21.73;38.42
51530;BME280;37613;51.788;21.582;2022-07-15T11:50:00;100067.40;;;21.88;38.55
51530;BME280;37613;51.788;21.582;2022-07-15T11:54:03;100070.23;;;21.76;38.31
51530;BME280;37613;51.788;21.582;2022-07-15T11:58:05;100067.11;;;21.93;38.26
51530;BME280;37613;51.788;21.582;2022-07-15T12:02:10;100075.05;;;22.09;38.02
51530;BME280;37613;51.788;21.582;2022-07-15T12:06:21;100079.29;;;21.88;38.85
51530;BME280;37613;51.788;21.582;2022-07-15T12:10:34;100084.02;;;21.81;39.03
51530;BME280;37613;51.788;21.582;2022-07-15T12:14:37;100076.80;;;21.76;39.28
51530;BME280;37613;51.788;21.582;2022-07-15T12:18:40;100081.64;;;21.76;40.28
51530;BME280;37613;51.788;21.582;2022-07-15T12:23:05;100088.28;;;21.94;40.11
51530;BME280;37613;51.788;21.582;2022-07-15T12:27:08;100098.06;;;21.67;40.02
51530;BME280;37613;51.788;21.582;2022-07-15T12:31:10;100099.20;;;21.25;40.31
51530;BME280;37613;51.788;21.582;2022-07-15T12:35:14;100096.15;;;21.51;40.72
51530;BME280;37613;51.788;21.582;2022-07-15T12:39:16;100095.56;;;21.76;39.84
51530;BME280;37613;51.788;21.582;2022-07-15T12:43:20;100102.13;;;22.00;40.23
51530;BME280;37613;51.788;21.582;2022-07-15T12:47:22;100103.38;;;21.99;39.95
51530;BME280;37613;51.788;21.582;2022-07-15T12:51:24;100106.88;;;21.71;39.34
51530;BME280;37613;51.788;21.582;2022-07-15T12:55:29;100103.10;;;21.57;39.30
51530;BME280;37613;51.788;21.582;2022-07-15T13:03:53;100105.77;;;21.53;38.28
51530;BME280;37613;51.788;21.582;2022-07-15T13:07:55;100105.55;;;21.14;38.35
51530;BME280;37613;51.788;21.582;2022-07-15T13:11:58;100106.96;;;21.11;39.49
51530;BME280;37613;51.788;21.582;2022-07-15T13:16:02;100108.91;;;21.23;39.56
51530;BME280;37613;51.788;21.582;2022-07-15T13:25:21;100120.73;;;21.60;38.10
51530;BME280;37613;51.788;21.582;2022-07-15T13:29:22;100122.04;;;21.34;37.36
51530;BME280;37613;51.788;21.582;2022-07-15T13:33:24;100128.08;;;21.08;38.18
51530;BME280;37613;51.788;21.582;2022-07-15T13:37:27;100129.67;;;20.92;38.50
51530;BME280;37613;51.788;21.582;2022-07-15T13:41:29;100133.30;;;20.82;38.69
51530;BME280;37613;51.788;21.582;2022-07-15T13:45:31;100135.30;;;20.83;39.50
51530;BME280;37613;51.788;21.582;2022-07-15T13:49:34;100135.05;;;20.98;38.49
51530;BME280;37613;51.788;21.582;2022-07-15T13:53:56;100136.20;;;21.00;37.90
51530;BME280;37613;51.788;21.582;2022-07-15T13:57:58;100146.01;;;20.86;38.31
51530;BME280;37613;51.788;21.582;2022-07-15T14:02:00;100149.25;;;20.75;38.11
51530;BME280;37613;51.788;21.582;2022-07-15T14:06:05;100151.20;;;20.84;38.40
51530;BME280;37613;51.788;21.582;2022-07-15T14:10:08;100151.42;;;20.87;38.17
51530;BME280;37613;51.788;21.582;2022-07-15T14:14:10;100149.59;;;20.76;38.12
51530;BME280;37613;51.788;21.582;2022-07-15T14:18:12;100157.23;;;20.73;38.10
51530;BME280;37613;51.788;21.582;2022-07-15T14:22:14;100152.83;;;20.84;37.93
51530;BME280;37613;51.788;21.582;2022-07-15T14:31:32;100161.55;;;20.44;37.66
51530;BME280;37613;51.788;21.582;2022-07-15T14:35:34;100163.29;;;20.35;37.90
51530;BME280;37613;51.788;21.582;2022-07-15T14:39:36;100161.41;;;20.25;38.11
51530;BME280;37613;51.788;21.582;2022-07-15T14:43:38;100165.10;;;20.20;38.60
51530;BME280;37613;51.788;21.582;2022-07-15T14:47:39;100170.78;;;20.18;38.82
51530;BME280;37613;51.788;21.582;2022-07-15T14:51:41;100172.46;;;20.26;39.09
51530;BME280;37613;51.788;21.582;2022-07-15T14:55:43;100176.64;;;20.22;39.22
51530;BME280;37613;51.788;21.582;2022-07-15T14:59:45;100178.37;;;20.15;39.15
51530;BME280;37613;51.788;21.582;2022-07-15T15:03:47;100181.78;;;20.16;39.41
51530;BME280;37613;51.788;21.582;2022-07-15T15:07:49;100176.87;;;20.20;39.43
51530;BME280;37613;51.788;21.582;2022-07-15T15:11:51;100178.59;;;20.18;39.56
51530;BME280;37613;51.788;21.582;2022-07-15T15:15:53;100182.58;;;20.10;39.70
51530;BME280;37613;51.788;21.582;2022-07-15T15:19:55;100186.95;;;20.11;39.56
51530;BME280;37613;51.788;21.582;2022-07-15T15:23:57;100185.64;;;20.28;39.51
51530;BME280;37613;51.788;21.582;2022-07-15T15:27:59;100183.98;;;20.43;39.20
51530;BME280;37613;51.788;21.582;2022-07-15T15:32:01;100188.42;;;20.51;39.07
51530;BME280;37613;51.788;21.582;2022-07-15T15:36:04;100186.70;;;20.45;38.57
51530;BME280;37613;51.788;21.582;2022-07-15T15:40:06;100190.78;;;20.36;39.17
51530;BME280;37613;51.788;21.582;2022-07-15T15:44:11;100191.60;;;20.29;39.13
51530;BME280;37613;51.788;21.582;2022-07-15T15:48:14;100193.28;;;20.29;39.22
51530;BME280;37613;51.788;21.582;2022-07-15T15:52:16;100194.08;;;20.30;39.56
51530;BME280;37613;51.788;21.582;2022-07-15T15:56:21;100190.97;;;20.34;39.74
51530;BME280;37613;51.788;21.582;2022-07-15T16:00:23;100198.05;;;20.33;39.80
51530;BME280;37613;51.788;21.582;2022-07-15T16:04:24;100197.78;;;20.27;39.24
51530;BME280;37613;51.788;21.582;2022-07-15T16:08:26;100195.05;;;20.17;39.28
51530;BME280;37613;51.788;21.582;2022-07-15T16:12:31;100192.96;;;20.09;39.41
51530;BME280;37613;51.788;21.582;2022-07-15T16:16:33;100193.33;;;19.98;39.47
51530;BME280;37613;51.788;21.582;2022-07-15T16:20:36;100192.77;;;19.83;39.75
51530;BME280;37613;51.788;21.582;2022-07-15T16:24:38;100196.56;;;19.63;39.98
51530;BME280;37613;51.788;21.582;2022-07-15T16:28:39;100199.95;;;19.40;40.33
51530;BME280;37613;51.788;21.582;2022-07-15T16:32:41;100196.31;;;19.30;40.37
51530;BME280;37613;51.788;21.582;2022-07-15T16:36:43;100189.73;;;19.33;41.18
51530;BME280;37613;51.788;21.582;2022-07-15T16:40:45;100191.77;;;19.36;41.23
51530;BME280;37613;51.788;21.582;2022-07-15T16:44:48;100190.84;;;19.38;41.28
51530;BME280;37613;51.788;21.582;2022-07-15T16:48:50;100193.58;;;19.35;41.51
51530;BME280;37613;51.788;21.582;2022-07-15T16:52:52;100196.22;;;19.33;41.70
51530;BME280;37613;51.788;21.582;2022-07-15T16:56:54;100192.76;;;19.29;41.01
51530;BME280;37613;51.788;21.582;2022-07-15T17:00:56;100197.40;;;19.17;41.05
51530;BME280;37613;51.788;21.582;2022-07-15T17:04:58;100205.64;;;19.09;41.35
51530;BME280;37613;51.788;21.582;2022-07-15T17:09:00;100203.29;;;19.00;41.45
51530;BME280;37613;51.788;21.582;2022-07-15T17:13:02;100206.45;;;18.90;41.47
51530;BME280;37613;51.788;21.582;2022-07-15T17:17:04;100209.66;;;18.76;41.91
51530;BME280;37613;51.788;21.582;2022-07-15T17:21:09;100211.14;;;18.56;42.15
51530;BME280;37613;51.788;21.582;2022-07-15T17:25:11;100209.68;;;18.48;42.45
51530;BME280;37613;51.788;21.582;2022-07-15T17:29:13;100210.87;;;18.38;43.25
51530;BME280;37613;51.788;21.582;2022-07-15T17:33:15;100213.17;;;18.33;43.14
51530;BME280;37613;51.788;21.582;2022-07-15T17:37:16;100212.71;;;18.30;43.74
51530;BME280;37613;51.788;21.582;2022-07-15T17:41:19;100213.48;;;18.29;43.51
51530;BME280;37613;51.788;21.582;2022-07-15T17:45:21;100222.34;;;18.22;43.87
51530;BME280;37613;51.788;21.582;2022-07-15T17:49:22;100225.95;;;18.13;43.61
51530;BME280;37613;51.788;21.582;2022-07-15T17:53:25;100229.98;;;18.02;43.86
51530;BME280;37613;51.788;21.582;2022-07-15T17:57:27;100228.27;;;17.90;44.18
51530;BME280;37613;51.788;21.582;2022-07-15T18:01:29;100230.92;;;17.78;44.31
51530;BME280;37613;51.788;21.582;2022-07-15T18:05:31;100229.04;;;17.68;44.52
51530;BME280;37613;51.788;21.582;2022-07-15T18:09:33;100232.08;;;17.59;44.73
51530;BME280;37613;51.788;21.582;2022-07-15T18:13:35;100234.38;;;17.51;45.01
51530;BME280;37613;51.788;21.582;2022-07-15T18:17:37;100236.94;;;17.45;45.26
51530;BME280;37613;51.788;21.582;2022-07-15T18:21:41;100238.45;;;17.37;45.48
51530;BME280;37613;51.788;21.582;2022-07-15T18:25:44;100241.68;;;17.30;45.58
51530;BME280;37613;51.788;21.582;2022-07-15T18:29:46;100238.34;;;17.23;46.20
51530;BME280;37613;51.788;21.582;2022-07-15T18:33:48;100238.19;;;17.14;46.01
51530;BME280;37613;51.788;21.582;2022-07-15T18:37:50;100242.04;;;17.04;46.30
51530;BME280;37613;51.788;21.582;2022-07-15T18:41:53;100241.72;;;16.95;46.20
51530;BME280;37613;51.788;21.582;2022-07-15T18:45:55;100248.00;;;16.86;46.40
51530;BME280;37613;51.788;21.582;2022-07-15T18:49:57;100250.73;;;16.76;46.34
51530;BME280;37613;51.788;21.582;2022-07-15T18:53:59;100252.93;;;16.63;46.92
51530;BME280;37613;51.788;21.582;2022-07-15T18:58:01;100257.83;;;16.52;46.96
51530;BME280;37613;51.788;21.582;2022-07-15T19:02:04;100263.49;;;16.38;47.27
51530;BME280;37613;51.788;21.582;2022-07-15T19:06:06;100266.73;;;16.22;47.59
51530;BME280;37613;51.788;21.582;2022-07-15T19:10:09;100274.87;;;16.04;47.87
51530;BME280;37613;51.788;21.582;2022-07-15T19:14:11;100270.89;;;15.84;48.14
51530;BME280;37613;51.788;21.582;2022-07-15T19:18:13;100278.23;;;15.62;48.29
51530;BME280;37613;51.788;21.582;2022-07-15T19:22:15;100279.94;;;15.39;48.79
51530;BME280;37613;51.788;21.582;2022-07-15T19:26:17;100279.36;;;15.19;48.98
51530;BME280;37613;51.788;21.582;2022-07-15T19:30:19;100285.12;;;14.99;49.23
51530;BME280;37613;51.788;21.582;2022-07-15T19:34:21;100290.59;;;14.81;49.53
51530;BME280;37613;51.788;21.582;2022-07-15T19:38:24;100293.89;;;14.62;49.77
51530;BME280;37613;51.788;21.582;2022-07-15T19:42:26;100292.33;;;14.44;49.99
51530;BME280;37613;51.788;21.582;2022-07-15T19:46:31;100293.73;;;14.28;50.26
51530;BME280;37613;51.788;21.582;2022-07-15T19:50:33;100298.31;;;14.12;50.49
51530;BME280;37613;51.788;21.582;2022-07-15T19:54:35;100291.58;;;13.98;50.83
51530;BME280;37613;51.788;21.582;2022-07-15T19:58:37;100301.83;;;13.85;51.11
51530;BME280;37613;51.788;21.582;2022-07-15T20:02:39;100310.16;;;13.72;51.38
51530;BME280;37613;51.788;21.582;2022-07-15T20:06:41;100305.63;;;13.58;51.60
51530;BME280;37613;51.788;21.582;2022-07-15T20:10:43;100310.08;;;13.43;51.89
51530;BME280;37613;51.788;21.582;2022-07-15T20:14:46;100314.00;;;13.31;52.07
51530;BME280;37613;51.788;21.582;2022-07-15T20:18:51;100314.89;;;13.20;52.52
51530;BME280;37613;51.788;21.582;2022-07-15T20:22:53;100314.73;;;13.10;52.75
51530;BME280;37613;51.788;21.582;2022-07-15T20:27:00;100322.57;;;13.02;52.92
51530;BME280;37613;51.788;21.582;2022-07-15T20:31:02;100320.18;;;12.92;53.23
51530;BME280;37613;51.788;21.582;2022-07-15T20:35:04;100322.87;;;12.82;53.45
51530;BME280;37613;51.788;21.582;2022-07-15T20:39:09;100325.23;;;12.74;53.67
51530;BME280;37613;51.788;21.582;2022-07-15T20:43:13;100328.38;;;12.66;53.88
51530;BME280;37613;51.788;21.582;2022-07-15T20:47:15;100324.86;;;12.58;54.13
51530;BME280;37613;51.788;21.582;2022-07-15T20:51:17;100322.23;;;12.50;54.33
51530;BME280;37613;51.788;21.582;2022-07-15T20:55:19;100325.27;;;12.42;54.42
51530;BME280;37613;51.788;21.582;2022-07-15T20:59:22;100322.46;;;12.34;54.82
51530;BME280;37613;51.788;21.582;2022-07-15T21:03:24;100327.66;;;12.26;55.05
51530;BME280;37613;51.788;21.582;2022-07-15T21:07:26;100324.30;;;12.19;55.14
51530;BME280;37613;51.788;21.582;2022-07-15T21:11:28;100324.56;;;12.10;55.35
51530;BME280;37613;51.788;21.582;2022-07-15T21:15:31;100324.61;;;12.01;55.64
51530;BME280;37613;51.788;21.582;2022-07-15T21:19:33;100328.44;;;11.94;55.85
51530;BME280;37613;51.788;21.582;2022-07-15T21:23:35;100325.77;;;11.87;56.10
51530;BME280;37613;51.788;21.582;2022-07-15T21:27:37;100326.09;;;11.80;56.29
51530;BME280;37613;51.788;21.582;2022-07-15T21:31:39;100326.34;;;11.74;56.41
51530;BME280;37613;51.788;21.582;2022-07-15T21:35:41;100327.30;;;11.66;56.54